sensor_id;sensor_type;location;lat;lon;timestamp;P1;durP1;ratioP1;P2;durP2;ratioP2
42246;SDS011;27913;42.722;23.268;2024-01-30T00:01:26;7.38;;;2.17;;
42246;SDS011;27913;42.722;23.268;2024-01-30T00:03:51;6.85;;;2.33;;
42246;SDS011;27913;42.722;23.268;2024-01-30T00:06:20;10.55;;;2.17;;
42246;SDS011;27913;42.722;23.268;2024-01-30T00:08:46;11.95;;;4.20;;
42246;SDS011;27913;42.722;23.268;2024-01-30T00:11:14;9.20;;;2.85;;
42246;SDS011;27913;42.722;23.268;2024-01-30T00:13:40;12.02;;;3.53;;
42246;SDS011;27913;42.722;23.268;2024-01-30T00:16:06;12.23;;;4.47;;
42246;SDS011;27913;42.722;23.268;2024-01-30T00:18:32;9.80;;;2.83;;
42246;SDS011;27913;42.722;23.268;2024-01-30T00:20:57;5.55;;;2.20;;
42246;SDS011;27913;42.722;23.268;2024-01-30T00:23:23;12.55;;;3.40;;
42246;SDS011;27913;42.722;23.268;2024-01-30T00:25:49;7.35;;;2.90;;
42246;SDS011;27913;42.722;23.268;2024-01-30T00:28:15;8.30;;;2.88;;
42246;SDS011;27913;42.722;23.268;2024-01-30T00:30:41;9.70;;;2.72;;
42246;SDS011;27913;42.722;23.268;2024-01-30T00:33:07;9.07;;;2.10;;
42246;SDS011;27913;42.722;23.268;2024-01-30T00:35:33;6.13;;;1.90;;
42246;SDS011;27913;42.722;23.268;2024-01-30T00:37:59;6.65;;;1.70;;
42246;SDS011;27913;42.722;23.268;2024-01-30T00:40:24;8.43;;;2.10;;
42246;SDS011;27913;42.722;23.268;2024-01-30T00:42:50;7.15;;;2.05;;
42246;SDS011;27913;42.722;23.268;2024-01-30T00:45:16;6.35;;;1.90;;
42246;SDS011;27913;42.722;23.268;2024-01-30T00:47:42;7.38;;;1.75;;
42246;SDS011;27913;42.722;23.268;2024-01-30T00:50:08;6.32;;;1.92;;
42246;SDS011;27913;42.722;23.268;2024-01-30T00:52:34;9.10;;;2.28;;
42246;SDS011;27913;42.722;23.268;2024-01-30T00:55:00;5.47;;;1.95;;
42246;SDS011;27913;42.722;23.268;2024-01-30T00:57:27;9.02;;;2.45;;
42246;SDS011;27913;42.722;23.268;2024-01-30T00:59:53;11.73;;;3.90;;
42246;SDS011;27913;42.722;23.268;2024-01-30T01:04:54;10.95;;;2.65;;
42246;SDS011;27913;42.722;23.268;2024-01-30T01:07:19;12.77;;;2.80;;
42246;SDS011;27913;42.722;23.268;2024-01-30T01:09:45;8.77;;;2.65;;
42246;SDS011;27913;42.722;23.268;2024-01-30T01:12:11;7.22;;;2.25;;
42246;SDS011;27913;42.722;23.268;2024-01-30T01:14:36;8.35;;;2.67;;
42246;SDS011;27913;42.722;23.268;2024-01-30T01:17:02;7.40;;;1.70;;
42246;SDS011;27913;42.722;23.268;2024-01-30T01:19:27;5.55;;;1.73;;
42246;SDS011;27913;42.722;23.268;2024-01-30T01:21:53;3.58;;;1.40;;
42246;SDS011;27913;42.722;23.268;2024-01-30T01:24:18;5.00;;;1.58;;
42246;SDS011;27913;42.722;23.268;2024-01-30T01:26:44;7.70;;;2.20;;
42246;SDS011;27913;42.722;23.268;2024-01-30T01:29:10;9.70;;;1.83;;
42246;SDS011;27913;42.722;23.268;2024-01-30T01:31:37;7.57;;;2.08;;
42246;SDS011;27913;42.722;23.268;2024-01-30T01:34:10;4.32;;;1.17;;
42246;SDS011;27913;42.722;23.268;2024-01-30T01:36:36;5.75;;;1.23;;
42246;SDS011;27913;42.722;23.268;2024-01-30T01:39:02;4.47;;;1.63;;
42246;SDS011;27913;42.722;23.268;2024-01-30T01:41:34;3.58;;;1.27;;
42246;SDS011;27913;42.722;23.268;2024-01-30T01:44:00;2.15;;;0.70;;
42246;SDS011;27913;42.722;23.268;2024-01-30T01:46:26;3.75;;;1.23;;
42246;SDS011;27913;42.722;23.268;2024-01-30T01:48:53;5.88;;;1.33;;
42246;SDS011;27913;42.722;23.268;2024-01-30T01:51:20;4.28;;;1.05;;
42246;SDS011;27913;42.722;23.268;2024-01-30T01:53:46;5.25;;;1.58;;
42246;SDS011;27913;42.722;23.268;2024-01-30T01:56:12;4.30;;;1.20;;
42246;SDS011;27913;42.722;23.268;2024-01-30T01:58:38;3.25;;;1.10;;
42246;SDS011;27913;42.722;23.268;2024-01-30T02:01:04;3.70;;;1.02;;
42246;SDS011;27913;42.722;23.268;2024-01-30T02:03:30;4.25;;;1.50;;
42246;SDS011;27913;42.722;23.268;2024-01-30T02:05:56;3.38;;;1.23;;
42246;SDS011;27913;42.722;23.268;2024-01-30T02:08:22;8.88;;;1.50;;
42246;SDS011;27913;42.722;23.268;2024-01-30T02:10:51;3.08;;;1.05;;
42246;SDS011;27913;42.722;23.268;2024-01-30T02:13:17;5.35;;;1.30;;
42246;SDS011;27913;42.722;23.268;2024-01-30T02:15:42;4.45;;;1.50;;
42246;SDS011;27913;42.722;23.268;2024-01-30T02:18:08;4.55;;;1.38;;
42246;SDS011;27913;42.722;23.268;2024-01-30T02:20:34;4.53;;;1.55;;
42246;SDS011;27913;42.722;23.268;2024-01-30T02:23:01;6.75;;;1.73;;
42246;SDS011;27913;42.722;23.268;2024-01-30T02:25:31;5.38;;;1.30;;
42246;SDS011;27913;42.722;23.268;2024-01-30T02:27:58;2.55;;;1.42;;
42246;SDS011;27913;42.722;23.268;2024-01-30T02:30:24;3.20;;;1.05;;
42246;SDS011;27913;42.722;23.268;2024-01-30T02:32:49;4.40;;;1.52;;
42246;SDS011;27913;42.722;23.268;2024-01-30T02:35:15;5.50;;;1.75;;
42246;SDS011;27913;42.722;23.268;2024-01-30T02:37:40;4.00;;;1.75;;
42246;SDS011;27913;42.722;23.268;2024-01-30T02:40:06;5.53;;;1.60;;
42246;SDS011;27913;42.722;23.268;2024-01-30T02:42:32;6.93;;;1.48;;
42246;SDS011;27913;42.722;23.268;2024-01-30T02:44:58;10.80;;;3.17;;
42246;SDS011;27913;42.722;23.268;2024-01-30T02:47:23;6.60;;;1.75;;
42246;SDS011;27913;42.722;23.268;2024-01-30T02:49:49;5.45;;;2.25;;
42246;SDS011;27913;42.722;23.268;2024-01-30T02:52:14;8.88;;;2.75;;
42246;SDS011;27913;42.722;23.268;2024-01-30T02:54:40;3.78;;;1.58;;
42246;SDS011;27913;42.722;23.268;2024-01-30T02:57:05;8.30;;;2.05;;
42246;SDS011;27913;42.722;23.268;2024-01-30T02:59:31;4.85;;;1.65;;
42246;SDS011;27913;42.722;23.268;2024-01-30T03:01:58;4.80;;;1.15;;
42246;SDS011;27913;42.722;23.268;2024-01-30T03:04:24;7.13;;;1.90;;
42246;SDS011;27913;42.722;23.268;2024-01-30T03:06:49;2.63;;;1.10;;
42246;SDS011;27913;42.722;23.268;2024-01-30T03:09:16;6.43;;;1.80;;
42246;SDS011;27913;42.722;23.268;2024-01-30T03:11:42;6.22;;;2.05;;
42246;SDS011;27913;42.722;23.268;2024-01-30T03:14:08;2.42;;;1.00;;
42246;SDS011;27913;42.722;23.268;2024-01-30T03:16:36;2.83;;;0.95;;
42246;SDS011;27913;42.722;23.268;2024-01-30T03:19:03;3.15;;;1.00;;
42246;SDS011;27913;42.722;23.268;2024-01-30T03:21:30;3.05;;;1.08;;
42246;SDS011;27913;42.722;23.268;2024-01-30T03:23:55;3.33;;;1.08;;
42246;SDS011;27913;42.722;23.268;2024-01-30T03:26:21;2.78;;;1.00;;
42246;SDS011;27913;42.722;23.268;2024-01-30T03:28:47;2.95;;;0.93;;
42246;SDS011;27913;42.722;23.268;2024-01-30T03:31:14;3.63;;;1.33;;
42246;SDS011;27913;42.722;23.268;2024-01-30T03:33:41;4.63;;;1.02;;
42246;SDS011;27913;42.722;23.268;2024-01-30T03:36:07;4.13;;;1.38;;
42246;SDS011;27913;42.722;23.268;2024-01-30T03:38:34;1.77;;;0.60;;
42246;SDS011;27913;42.722;23.268;2024-01-30T03:41:00;1.85;;;0.88;;
42246;SDS011;27913;42.722;23.268;2024-01-30T03:43:25;2.78;;;0.85;;
42246;SDS011;27913;42.722;23.268;2024-01-30T03:45:51;2.83;;;0.98;;
42246;SDS011;27913;42.722;23.268;2024-01-30T03:48:17;2.75;;;0.90;;
42246;SDS011;27913;42.722;23.268;2024-01-30T03:50:42;2.35;;;0.77;;
42246;SDS011;27913;42.722;23.268;2024-01-30T03:53:08;3.13;;;0.98;;
42246;SDS011;27913;42.722;23.268;2024-01-30T03:55:34;3.17;;;0.98;;
42246;SDS011;27913;42.722;23.268;2024-01-30T03:57:59;2.17;;;0.70;;
42246;SDS011;27913;42.722;23.268;2024-01-30T04:00:26;2.42;;;0.65;;
42246;SDS011;27913;42.722;23.268;2024-01-30T04:02:51;6.95;;;2.20;;
42246;SDS011;27913;42.722;23.268;2024-01-30T04:05:17;7.32;;;2.38;;
42246;SDS011;27913;42.722;23.268;2024-01-30T04:07:43;4.95;;;1.17;;
42246;SDS011;27913;42.722;23.268;2024-01-30T04:10:09;2.92;;;1.00;;
42246;SDS011;27913;42.722;23.268;2024-01-30T04:12:35;4.10;;;1.08;;
42246;SDS011;27913;42.722;23.268;2024-01-30T04:15:01;4.28;;;1.20;;
42246;SDS011;27913;42.722;23.268;2024-01-30T04:17:28;4.03;;;1.20;;
42246;SDS011;27913;42.722;23.268;2024-01-30T04:19:54;5.82;;;1.48;;
42246;SDS011;27913;42.722;23.268;2024-01-30T04:22:20;4.38;;;1.50;;
42246;SDS011;27913;42.722;23.268;2024-01-30T04:24:45;2.47;;;0.93;;
42246;SDS011;27913;42.722;23.268;2024-01-30T04:27:11;3.55;;;1.42;;
42246;SDS011;27913;42.722;23.268;2024-01-30T04:29:36;2.78;;;1.05;;
42246;SDS011;27913;42.722;23.268;2024-01-30T04:32:02;3.30;;;0.88;;
42246;SDS011;27913;42.722;23.268;2024-01-30T04:34:28;1.40;;;0.70;;
42246;SDS011;27913;42.722;23.268;2024-01-30T04:36:54;2.92;;;0.90;;
42246;SDS011;27913;42.722;23.268;2024-01-30T04:39:19;4.03;;;1.25;;
42246;SDS011;27913;42.722;23.268;2024-01-30T04:41:45;3.20;;;0.80;;
42246;SDS011;27913;42.722;23.268;2024-01-30T04:44:11;3.88;;;1.35;;
42246;SDS011;27913;42.722;23.268;2024-01-30T04:46:36;3.15;;;1.17;;
42246;SDS011;27913;42.722;23.268;2024-01-30T04:49:02;6.05;;;1.52;;
42246;SDS011;27913;42.722;23.268;2024-01-30T04:51:28;4.45;;;1.23;;
42246;SDS011;27913;42.722;23.268;2024-01-30T04:53:54;4.60;;;1.48;;
42246;SDS011;27913;42.722;23.268;2024-01-30T04:56:20;3.90;;;1.20;;
42246;SDS011;27913;42.722;23.268;2024-01-30T04:58:46;5.97;;;1.73;;
42246;SDS011;27913;42.722;23.268;2024-01-30T05:01:15;6.03;;;1.75;;
42246;SDS011;27913;42.722;23.268;2024-01-30T05:03:43;6.97;;;2.22;;
42246;SDS011;27913;42.722;23.268;2024-01-30T05:06:09;8.15;;;1.88;;
42246;SDS011;27913;42.722;23.268;2024-01-30T05:08:35;11.50;;;2.90;;
42246;SDS011;27913;42.722;23.268;2024-01-30T05:11:05;8.93;;;2.47;;
42246;SDS011;27913;42.722;23.268;2024-01-30T05:13:31;9.10;;;2.83;;
42246;SDS011;27913;42.722;23.268;2024-01-30T05:15:57;4.90;;;1.85;;
42246;SDS011;27913;42.722;23.268;2024-01-30T05:18:22;5.28;;;1.25;;
42246;SDS011;27913;42.722;23.268;2024-01-30T05:20:49;4.82;;;1.05;;
42246;SDS011;27913;42.722;23.268;2024-01-30T05:23:16;7.43;;;1.92;;
42246;SDS011;27913;42.722;23.268;2024-01-30T05:25:43;6.70;;;1.90;;
42246;SDS011;27913;42.722;23.268;2024-01-30T05:28:08;6.72;;;1.55;;
42246;SDS011;27913;42.722;23.268;2024-01-30T05:30:34;6.35;;;1.20;;
42246;SDS011;27913;42.722;23.268;2024-01-30T05:33:00;6.93;;;1.98;;
42246;SDS011;27913;42.722;23.268;2024-01-30T05:35:25;2.53;;;1.00;;
42246;SDS011;27913;42.722;23.268;2024-01-30T05:37:51;9.95;;;2.20;;
42246;SDS011;27913;42.722;23.268;2024-01-30T05:40:17;7.32;;;2.00;;
42246;SDS011;27913;42.722;23.268;2024-01-30T05:42:42;12.82;;;3.38;;
42246;SDS011;27913;42.722;23.268;2024-01-30T05:45:08;7.20;;;2.53;;
42246;SDS011;27913;42.722;23.268;2024-01-30T05:47:34;12.60;;;3.90;;
42246;SDS011;27913;42.722;23.268;2024-01-30T05:50:00;10.05;;;3.20;;
42246;SDS011;27913;42.722;23.268;2024-01-30T05:52:26;11.20;;;2.45;;
42246;SDS011;27913;42.722;23.268;2024-01-30T05:54:51;6.35;;;1.42;;
42246;SDS011;27913;42.722;23.268;2024-01-30T05:57:17;9.05;;;2.22;;
42246;SDS011;27913;42.722;23.268;2024-01-30T05:59:43;7.10;;;2.40;;
42246;SDS011;27913;42.722;23.268;2024-01-30T06:02:13;7.13;;;1.80;;
42246;SDS011;27913;42.722;23.268;2024-01-30T06:04:39;5.25;;;1.63;;
42246;SDS011;27913;42.722;23.268;2024-01-30T06:07:04;6.93;;;2.22;;
42246;SDS011;27913;42.722;23.268;2024-01-30T06:09:31;5.60;;;1.80;;
42246;SDS011;27913;42.722;23.268;2024-01-30T06:11:57;5.97;;;1.90;;
42246;SDS011;27913;42.722;23.268;2024-01-30T06:14:23;6.68;;;1.58;;
42246;SDS011;27913;42.722;23.268;2024-01-30T06:16:49;13.00;;;2.65;;
42246;SDS011;27913;42.722;23.268;2024-01-30T06:19:15;6.32;;;2.13;;
42246;SDS011;27913;42.722;23.268;2024-01-30T06:21:40;7.30;;;1.65;;
42246;SDS011;27913;42.722;23.268;2024-01-30T06:24:06;7.60;;;2.72;;
42246;SDS011;27913;42.722;23.268;2024-01-30T06:26:32;5.03;;;1.70;;
42246;SDS011;27913;42.722;23.268;2024-01-30T06:28:57;5.25;;;1.67;;
42246;SDS011;27913;42.722;23.268;2024-01-30T06:31:23;3.63;;;1.40;;
42246;SDS011;27913;42.722;23.268;2024-01-30T06:33:49;2.35;;;0.93;;
42246;SDS011;27913;42.722;23.268;2024-01-30T06:36:15;3.33;;;1.20;;
42246;SDS011;27913;42.722;23.268;2024-01-30T06:38:41;3.67;;;1.20;;
42246;SDS011;27913;42.722;23.268;2024-01-30T06:41:06;3.15;;;0.90;;
42246;SDS011;27913;42.722;23.268;2024-01-30T06:43:32;19.42;;;5.63;;
42246;SDS011;27913;42.722;23.268;2024-01-30T06:45:58;20.77;;;7.72;;
42246;SDS011;27913;42.722;23.268;2024-01-30T06:48:24;10.77;;;3.80;;
42246;SDS011;27913;42.722;23.268;2024-01-30T06:50:52;3.72;;;1.50;;
42246;SDS011;27913;42.722;23.268;2024-01-30T06:53:19;4.82;;;1.40;;
42246;SDS011;27913;42.722;23.268;2024-01-30T06:55:45;5.72;;;1.00;;
42246;SDS011;27913;42.722;23.268;2024-01-30T06:58:10;2.58;;;1.08;;
42246;SDS011;27913;42.722;23.268;2024-01-30T07:00:36;4.25;;;1.30;;
42246;SDS011;27913;42.722;23.268;2024-01-30T07:03:04;4.15;;;1.50;;
42246;SDS011;27913;42.722;23.268;2024-01-30T07:05:32;8.32;;;2.08;;
42246;SDS011;27913;42.722;23.268;2024-01-30T07:07:58;4.97;;;1.33;;
42246;SDS011;27913;42.722;23.268;2024-01-30T07:10:23;5.22;;;1.40;;
42246;SDS011;27913;42.722;23.268;2024-01-30T07:12:49;7.78;;;2.05;;
42246;SDS011;27913;42.722;23.268;2024-01-30T07:15:14;14.30;;;3.88;;
42246;SDS011;27913;42.722;23.268;2024-01-30T07:17:44;10.93;;;2.17;;
42246;SDS011;27913;42.722;23.268;2024-01-30T07:20:11;9.60;;;2.28;;
42246;SDS011;27913;42.722;23.268;2024-01-30T07:22:36;4.80;;;1.10;;
42246;SDS011;27913;42.722;23.268;2024-01-30T07:25:02;4.05;;;1.17;;
42246;SDS011;27913;42.722;23.268;2024-01-30T07:27:28;4.38;;;1.48;;
42246;SDS011;27913;42.722;23.268;2024-01-30T07:29:53;5.72;;;1.80;;
42246;SDS011;27913;42.722;23.268;2024-01-30T07:32:19;4.47;;;1.50;;
42246;SDS011;27913;42.722;23.268;2024-01-30T07:34:44;3.35;;;0.93;;
42246;SDS011;27913;42.722;23.268;2024-01-30T07:37:10;5.03;;;1.55;;
42246;SDS011;27913;42.722;23.268;2024-01-30T07:39:38;3.42;;;1.15;;
42246;SDS011;27913;42.722;23.268;2024-01-30T07:42:03;4.20;;;1.30;;
42246;SDS011;27913;42.722;23.268;2024-01-30T07:44:29;5.15;;;1.27;;
42246;SDS011;27913;42.722;23.268;2024-01-30T07:46:56;3.75;;;1.23;;
42246;SDS011;27913;42.722;23.268;2024-01-30T07:49:22;4.38;;;1.13;;
42246;SDS011;27913;42.722;23.268;2024-01-30T07:51:47;3.83;;;1.38;;
42246;SDS011;27913;42.722;23.268;2024-01-30T07:54:13;5.10;;;1.27;;
42246;SDS011;27913;42.722;23.268;2024-01-30T07:56:38;8.02;;;1.50;;
42246;SDS011;27913;42.722;23.268;2024-01-30T07:59:04;3.35;;;1.00;;
42246;SDS011;27913;42.722;23.268;2024-01-30T08:01:30;4.50;;;1.05;;
42246;SDS011;27913;42.722;23.268;2024-01-30T08:03:55;5.97;;;1.42;;
42246;SDS011;27913;42.722;23.268;2024-01-30T08:06:21;3.30;;;1.17;;
42246;SDS011;27913;42.722;23.268;2024-01-30T08:08:46;5.22;;;1.52;;
42246;SDS011;27913;42.722;23.268;2024-01-30T08:11:12;2.35;;;0.80;;
42246;SDS011;27913;42.722;23.268;2024-01-30T08:13:37;3.15;;;1.38;;
42246;SDS011;27913;42.722;23.268;2024-01-30T08:16:03;6.90;;;1.70;;
42246;SDS011;27913;42.722;23.268;2024-01-30T08:18:29;8.10;;;1.90;;
42246;SDS011;27913;42.722;23.268;2024-01-30T08:20:55;3.85;;;1.17;;
42246;SDS011;27913;42.722;23.268;2024-01-30T08:23:20;6.05;;;1.73;;
42246;SDS011;27913;42.722;23.268;2024-01-30T08:25:46;6.00;;;1.90;;
42246;SDS011;27913;42.722;23.268;2024-01-30T08:28:12;7.07;;;1.88;;
42246;SDS011;27913;42.722;23.268;2024-01-30T08:30:37;5.32;;;1.63;;
42246;SDS011;27913;42.722;23.268;2024-01-30T08:33:04;4.38;;;1.38;;
42246;SDS011;27913;42.722;23.268;2024-01-30T08:35:30;4.15;;;1.90;;
42246;SDS011;27913;42.722;23.268;2024-01-30T08:37:58;5.15;;;1.52;;
42246;SDS011;27913;42.722;23.268;2024-01-30T08:40:24;3.90;;;1.20;;
42246;SDS011;27913;42.722;23.268;2024-01-30T08:42:50;6.25;;;1.58;;
42246;SDS011;27913;42.722;23.268;2024-01-30T08:45:15;4.78;;;0.98;;
42246;SDS011;27913;42.722;23.268;2024-01-30T08:47:41;4.88;;;1.35;;
42246;SDS011;27913;42.722;23.268;2024-01-30T08:50:07;2.92;;;0.82;;
42246;SDS011;27913;42.722;23.268;2024-01-30T08:52:33;3.33;;;0.90;;
42246;SDS011;27913;42.722;23.268;2024-01-30T08:55:01;5.10;;;1.48;;
42246;SDS011;27913;42.722;23.268;2024-01-30T08:57:26;4.40;;;1.33;;
42246;SDS011;27913;42.722;23.268;2024-01-30T08:59:55;3.33;;;1.02;;
42246;SDS011;27913;42.722;23.268;2024-01-30T09:02:21;4.57;;;1.40;;
42246;SDS011;27913;42.722;23.268;2024-01-30T09:04:46;6.18;;;1.88;;
42246;SDS011;27913;42.722;23.268;2024-01-30T09:07:14;5.20;;;1.55;;
42246;SDS011;27913;42.722;23.268;2024-01-30T09:09:39;7.80;;;1.90;;
42246;SDS011;27913;42.722;23.268;2024-01-30T09:12:06;12.02;;;3.67;;
42246;SDS011;27913;42.722;23.268;2024-01-30T09:14:34;6.60;;;2.55;;
42246;SDS011;27913;42.722;23.268;2024-01-30T09:17:00;4.82;;;1.15;;
42246;SDS011;27913;42.722;23.268;2024-01-30T09:19:28;7.35;;;1.98;;
42246;SDS011;27913;42.722;23.268;2024-01-30T09:21:53;4.32;;;1.50;;
42246;SDS011;27913;42.722;23.268;2024-01-30T09:24:19;4.40;;;1.50;;
42246;SDS011;27913;42.722;23.268;2024-01-30T09:26:45;4.22;;;1.25;;
42246;SDS011;27913;42.722;23.268;2024-01-30T09:29:10;3.30;;;0.90;;
42246;SDS011;27913;42.722;23.268;2024-01-30T09:31:36;4.43;;;1.10;;
42246;SDS011;27913;42.722;23.268;2024-01-30T09:34:01;4.47;;;1.23;;
42246;SDS011;27913;42.722;23.268;2024-01-30T09:36:27;4.22;;;1.40;;
42246;SDS011;27913;42.722;23.268;2024-01-30T09:38:53;2.40;;;0.88;;
42246;SDS011;27913;42.722;23.268;2024-01-30T09:41:18;2.55;;;0.90;;
42246;SDS011;27913;42.722;23.268;2024-01-30T09:43:47;5.07;;;1.52;;
42246;SDS011;27913;42.722;23.268;2024-01-30T09:46:14;3.92;;;1.35;;
42246;SDS011;27913;42.722;23.268;2024-01-30T09:48:41;4.40;;;1.30;;
42246;SDS011;27913;42.722;23.268;2024-01-30T09:51:09;4.25;;;1.50;;
42246;SDS011;27913;42.722;23.268;2024-01-30T09:53:37;3.17;;;1.08;;
42246;SDS011;27913;42.722;23.268;2024-01-30T09:56:05;3.25;;;1.02;;
42246;SDS011;27913;42.722;23.268;2024-01-30T09:58:31;5.00;;;1.20;;
42246;SDS011;27913;42.722;23.268;2024-01-30T10:00:56;6.03;;;1.45;;
42246;SDS011;27913;42.722;23.268;2024-01-30T10:03:22;8.45;;;2.70;;
42246;SDS011;27913;42.722;23.268;2024-01-30T10:05:51;13.82;;;2.95;;
42246;SDS011;27913;42.722;23.268;2024-01-30T10:08:22;12.18;;;3.45;;
42246;SDS011;27913;42.722;23.268;2024-01-30T10:10:48;10.38;;;2.65;;
42246;SDS011;27913;42.722;23.268;2024-01-30T10:13:17;11.13;;;2.38;;
42246;SDS011;27913;42.722;23.268;2024-01-30T10:15:43;4.72;;;1.30;;
42246;SDS011;27913;42.722;23.268;2024-01-30T10:18:10;4.10;;;1.00;;
42246;SDS011;27913;42.722;23.268;2024-01-30T10:20:36;6.72;;;1.30;;
42246;SDS011;27913;42.722;23.268;2024-01-30T10:23:02;2.28;;;0.98;;
42246;SDS011;27913;42.722;23.268;2024-01-30T10:25:28;6.90;;;2.10;;
42246;SDS011;27913;42.722;23.268;2024-01-30T10:27:56;3.92;;;1.30;;
42246;SDS011;27913;42.722;23.268;2024-01-30T10:30:22;2.88;;;1.05;;
42246;SDS011;27913;42.722;23.268;2024-01-30T10:32:48;4.68;;;1.15;;
42246;SDS011;27913;42.722;23.268;2024-01-30T10:35:14;2.95;;;1.10;;
42246;SDS011;27913;42.722;23.268;2024-01-30T10:37:41;5.32;;;1.75;;
42246;SDS011;27913;42.722;23.268;2024-01-30T10:40:09;3.88;;;0.88;;
42246;SDS011;27913;42.722;23.268;2024-01-30T10:42:38;4.88;;;1.27;;
42246;SDS011;27913;42.722;23.268;2024-01-30T10:45:09;4.30;;;1.20;;
42246;SDS011;27913;42.722;23.268;2024-01-30T10:47:49;4.47;;;1.30;;
42246;SDS011;27913;42.722;23.268;2024-01-30T10:50:15;6.85;;;1.98;;
42246;SDS011;27913;42.722;23.268;2024-01-30T10:52:41;4.88;;;1.27;;
42246;SDS011;27913;42.722;23.268;2024-01-30T10:55:08;4.38;;;1.33;;
42246;SDS011;27913;42.722;23.268;2024-01-30T10:57:35;4.65;;;1.75;;
42246;SDS011;27913;42.722;23.268;2024-01-30T11:00:04;3.30;;;1.10;;
42246;SDS011;27913;42.722;23.268;2024-01-30T11:02:35;2.97;;;0.90;;
42246;SDS011;27913;42.722;23.268;2024-01-30T11:05:08;3.90;;;1.20;;
42246;SDS011;27913;42.722;23.268;2024-01-30T11:07:34;3.30;;;1.15;;
42246;SDS011;27913;42.722;23.268;2024-01-30T11:10:01;2.13;;;0.68;;
42246;SDS011;27913;42.722;23.268;2024-01-30T11:12:32;4.50;;;0.98;;
42246;SDS011;27913;42.722;23.268;2024-01-30T11:20:15;5.75;;;1.27;;
42246;SDS011;27913;42.722;23.268;2024-01-30T11:22:47;2.97;;;1.00;;
42246;SDS011;27913;42.722;23.268;2024-01-30T11:25:13;5.25;;;1.48;;
42246;SDS011;27913;42.722;23.268;2024-01-30T11:27:41;2.08;;;0.82;;
42246;SDS011;27913;42.722;23.268;2024-01-30T11:30:08;5.80;;;1.30;;
42246;SDS011;27913;42.722;23.268;2024-01-30T11:32:34;2.80;;;0.95;;
42246;SDS011;27913;42.722;23.268;2024-01-30T11:35:00;2.63;;;0.95;;
42246;SDS011;27913;42.722;23.268;2024-01-30T11:37:28;5.43;;;1.42;;
42246;SDS011;27913;42.722;23.268;2024-01-30T11:39:56;3.17;;;1.52;;
42246;SDS011;27913;42.722;23.268;2024-01-30T11:42:23;2.92;;;0.63;;
42246;SDS011;27913;42.722;23.268;2024-01-30T11:44:50;2.75;;;0.95;;
42246;SDS011;27913;42.722;23.268;2024-01-30T11:47:16;3.22;;;0.88;;
42246;SDS011;27913;42.722;23.268;2024-01-30T11:49:42;2.78;;;0.90;;
42246;SDS011;27913;42.722;23.268;2024-01-30T11:52:08;4.75;;;1.08;;
42246;SDS011;27913;42.722;23.268;2024-01-30T11:54:34;4.50;;;1.30;;
42246;SDS011;27913;42.722;23.268;2024-01-30T11:57:00;6.53;;;1.50;;
42246;SDS011;27913;42.722;23.268;2024-01-30T11:59:26;6.72;;;1.90;;
42246;SDS011;27913;42.722;23.268;2024-01-30T12:01:52;8.38;;;2.05;;
42246;SDS011;27913;42.722;23.268;2024-01-30T12:04:17;1.95;;;0.80;;
42246;SDS011;27913;42.722;23.268;2024-01-30T12:06:43;2.55;;;1.02;;
42246;SDS011;27913;42.722;23.268;2024-01-30T12:09:09;5.13;;;1.48;;
42246;SDS011;27913;42.722;23.268;2024-01-30T12:11:46;6.47;;;1.27;;
42246;SDS011;27913;42.722;23.268;2024-01-30T12:14:13;2.75;;;1.00;;
42246;SDS011;27913;42.722;23.268;2024-01-30T12:16:42;6.10;;;1.50;;
42246;SDS011;27913;42.722;23.268;2024-01-30T12:19:20;3.15;;;0.90;;
42246;SDS011;27913;42.722;23.268;2024-01-30T12:21:53;3.80;;;0.98;;
42246;SDS011;27913;42.722;23.268;2024-01-30T12:24:21;5.10;;;1.27;;
42246;SDS011;27913;42.722;23.268;2024-01-30T12:26:47;3.78;;;1.20;;
42246;SDS011;27913;42.722;23.268;2024-01-30T12:29:14;12.02;;;1.00;;
42246;SDS011;27913;42.722;23.268;2024-01-30T12:31:41;5.00;;;1.63;;
42246;SDS011;27913;42.722;23.268;2024-01-30T12:34:08;6.95;;;1.60;;
42246;SDS011;27913;42.722;23.268;2024-01-30T12:36:34;7.13;;;1.65;;
42246;SDS011;27913;42.722;23.268;2024-01-30T12:39:00;3.55;;;1.23;;
42246;SDS011;27913;42.722;23.268;2024-01-30T12:41:30;4.35;;;1.75;;
42246;SDS011;27913;42.722;23.268;2024-01-30T12:43:57;5.68;;;1.90;;
42246;SDS011;27913;42.722;23.268;2024-01-30T12:46:29;4.30;;;1.67;;
42246;SDS011;27913;42.722;23.268;2024-01-30T12:48:55;4.45;;;1.50;;
42246;SDS011;27913;42.722;23.268;2024-01-30T12:51:21;3.50;;;1.00;;
42246;SDS011;27913;42.722;23.268;2024-01-30T12:53:46;3.50;;;1.23;;
42246;SDS011;27913;42.722;23.268;2024-01-30T12:56:13;5.07;;;1.70;;
42246;SDS011;27913;42.722;23.268;2024-01-30T12:58:40;4.18;;;1.23;;
42246;SDS011;27913;42.722;23.268;2024-01-30T13:01:08;4.82;;;1.00;;
42246;SDS011;27913;42.722;23.268;2024-01-30T13:03:33;4.00;;;1.27;;
42246;SDS011;27913;42.722;23.268;2024-01-30T13:05:59;7.15;;;1.52;;
42246;SDS011;27913;42.722;23.268;2024-01-30T13:08:25;4.85;;;1.48;;
42246;SDS011;27913;42.722;23.268;2024-01-30T13:10:50;6.38;;;1.40;;
42246;SDS011;27913;42.722;23.268;2024-01-30T13:13:16;5.50;;;1.77;;
42246;SDS011;27913;42.722;23.268;2024-01-30T13:15:42;4.60;;;1.50;;
42246;SDS011;27913;42.722;23.268;2024-01-30T13:18:07;11.32;;;2.35;;
42246;SDS011;27913;42.722;23.268;2024-01-30T13:20:33;9.85;;;3.40;;
42246;SDS011;27913;42.722;23.268;2024-01-30T13:22:59;7.03;;;1.90;;
42246;SDS011;27913;42.722;23.268;2024-01-30T13:25:24;5.53;;;1.65;;
42246;SDS011;27913;42.722;23.268;2024-01-30T13:27:50;3.20;;;1.02;;
42246;SDS011;27913;42.722;23.268;2024-01-30T13:30:15;4.25;;;1.55;;
42246;SDS011;27913;42.722;23.268;2024-01-30T13:32:41;3.75;;;1.15;;
42246;SDS011;27913;42.722;23.268;2024-01-30T13:35:09;4.97;;;1.65;;
42246;SDS011;27913;42.722;23.268;2024-01-30T13:37:34;2.92;;;1.00;;
42246;SDS011;27913;42.722;23.268;2024-01-30T13:40:01;2.58;;;1.00;;
42246;SDS011;27913;42.722;23.268;2024-01-30T13:42:38;5.90;;;1.95;;
42246;SDS011;27913;42.722;23.268;2024-01-30T13:45:04;6.20;;;2.55;;
42246;SDS011;27913;42.722;23.268;2024-01-30T13:47:30;6.45;;;1.83;;
42246;SDS011;27913;42.722;23.268;2024-01-30T13:49:56;2.13;;;0.85;;
42246;SDS011;27913;42.722;23.268;2024-01-30T13:52:21;2.97;;;1.20;;
42246;SDS011;27913;42.722;23.268;2024-01-30T13:54:47;5.38;;;1.30;;
42246;SDS011;27913;42.722;23.268;2024-01-30T13:57:13;2.35;;;0.85;;
42246;SDS011;27913;42.722;23.268;2024-01-30T13:59:38;2.85;;;1.30;;
42246;SDS011;27913;42.722;23.268;2024-01-30T14:02:04;7.25;;;2.17;;
42246;SDS011;27913;42.722;23.268;2024-01-30T14:04:31;9.68;;;2.10;;
42246;SDS011;27913;42.722;23.268;2024-01-30T14:10:49;8.52;;;2.63;;
42246;SDS011;27913;42.722;23.268;2024-01-30T14:13:36;9.35;;;3.50;;
42246;SDS011;27913;42.722;23.268;2024-01-30T14:16:52;6.85;;;1.98;;
42246;SDS011;27913;42.722;23.268;2024-01-30T14:19:37;5.05;;;1.80;;
42246;SDS011;27913;42.722;23.268;2024-01-30T14:26:27;6.82;;;2.38;;
42246;SDS011;27913;42.722;23.268;2024-01-30T14:29:22;9.10;;;3.15;;
42246;SDS011;27913;42.722;23.268;2024-01-30T14:31:48;4.97;;;1.83;;
42246;SDS011;27913;42.722;23.268;2024-01-30T14:34:14;3.55;;;1.00;;
42246;SDS011;27913;42.722;23.268;2024-01-30T14:36:41;4.68;;;1.42;;
42246;SDS011;27913;42.722;23.268;2024-01-30T14:39:07;3.78;;;1.30;;
42246;SDS011;27913;42.722;23.268;2024-01-30T14:41:36;6.03;;;1.90;;
42246;SDS011;27913;42.722;23.268;2024-01-30T14:44:43;10.98;;;3.20;;
42246;SDS011;27913;42.722;23.268;2024-01-30T14:47:21;5.38;;;2.05;;